Time;durP1;ratioP1;P1;durP2;ratioP2;P2;SDS_P1;SDS_P2;PMS_P1;PMS_P2;Temp;Humidity;BMP_temperature;BMP_pressure;BME280_temperature;BME280_humidity;BME280_pressure;Samples;Min_cycle;Max_cycle;Signal;HPM_P1;HPM_P2
2022/05/09 00:01:41;;;;;;;7.03;2.90;;;;;;;11.78;45.13;101357.25;1746820;80;20900;-78
2022/05/09 00:04:08;;;;;;;9.05;4.12;;;;;;;11.78;45.09;101359.43;1747054;80;21073;-79
2022/05/09 00:06:35;;;;;;;6.75;3.80;;;;;;;11.78;45.14;101348.05;1747174;80;21789;-78
2022/05/09 00:09:04;;;;;;;10.68;3.85;;;;;;;11.78;45.29;101349.36;1746852;82;20881;-78
2022/05/09 00:11:32;;;;;;;7.55;3.00;;;;;;;11.75;45.55;101350.38;1746933;80;21425;-79
2022/05/09 00:14:00;;;;;;;6.67;3.08;;;;;;;11.74;45.60;101349.17;1747103;80;20979;-78
2022/05/09 00:16:33;;;;;;;8.53;3.75;;;;;;;11.71;45.81;101347.52;1746924;80;20936;-78
2022/05/09 00:18:56;;;;;;;4.72;2.95;;;;;;;11.71;45.60;101348.00;1746487;82;20880;-79
2022/05/09 00:21:23;;;;;;;5.90;3.05;;;;;;;11.70;45.60;101344.53;1748081;80;20924;-78
2022/05/09 00:23:51;;;;;;;6.25;2.83;;;;;;;11.70;45.63;101341.06;1747289;80;21498;-78
2022/05/09 00:26:18;;;;;;;10.55;3.72;;;;;;;11.70;45.66;101346.31;1746966;80;21226;-80
2022/05/09 00:28:44;;;;;;;7.15;3.00;;;;;;;11.70;45.64;101342.37;1747131;80;20924;-79
2022/05/09 00:31:11;;;;;;;6.67;4.00;;;;;;;11.70;45.65;101343.22;1746833;80;21140;-78
2022/05/09 00:33:38;;;;;;;7.75;3.15;;;;;;;11.70;45.74;101335.80;1746990;82;20948;-76
2022/05/09 00:36:05;;;;;;;7.15;3.30;;;;;;;11.69;45.83;101342.81;1747580;82;20893;-76
2022/05/09 00:38:32;;;;;;;7.83;3.40;;;;;;;11.69;45.77;101340.19;1746903;80;20932;-78
2022/05/09 00:43:44;;;;;;;12.25;3.47;;;;;;;11.68;45.88;101335.03;1748237;80;22028;-78
2022/05/09 00:46:10;;;;;;;11.45;3.22;;;;;;;11.67;46.05;101335.95;1746854;80;20948;-79
2022/05/09 00:48:37;;;;;;;6.50;3.52;;;;;;;11.64;46.00;101333.02;1746861;80;21331;-78
2022/05/09 00:51:05;;;;;;;6.08;2.90;;;;;;;11.63;45.95;101330.03;1746794;80;20932;-79
2022/05/09 00:53:31;;;;;;;10.00;3.70;;;;;;;11.62;45.88;101329.63;1746867;80;20964;-79
2022/05/09 00:56:02;;;;;;;8.23;3.65;;;;;;;11.61;45.91;101324.00;1748520;81;21045;-78
2022/05/09 00:58:46;;;;;;;7.55;3.33;;;;;;;11.60;45.96;101328.42;1765367;80;21011;-79
2022/05/09 01:01:13;;;;;;;15.20;4.28;;;;;;;11.59;45.75;101320.13;1765397;81;21486;-78
2022/05/09 01:03:50;;;;;;;8.88;3.75;;;;;;;11.59;45.73;101316.20;1765440;80;20980;-78
2022/05/09 01:06:16;;;;;;;8.78;3.55;;;;;;;11.58;45.77;101318.45;1765415;80;20909;-78
2022/05/09 01:10:44;;;;;;;12.50;3.60;;;;;;;11.61;45.89;101315.65;1798559;79;22625;-79
2022/05/09 01:13:12;;;;;;;6.47;3.58;;;;;;;11.54;45.93;101315.59;1758391;80;21027;-79
2022/05/09 01:15:40;;;;;;;5.83;3.62;;;;;;;11.52;46.01;101310.89;1758260;80;21747;-79
2022/05/09 01:18:08;;;;;;;9.08;5.25;;;;;;;11.49;46.20;101311.03;1758205;81;21411;-78
2022/05/09 01:20:36;;;;;;;10.25;6.30;;;;;;;11.44;46.24;101310.44;1758258;80;20884;-79
2022/05/09 01:23:03;;;;;;;7.17;4.10;;;;;;;11.40;46.29;101314.14;1758504;81;21370;-79
2022/05/09 01:25:31;;;;;;;15.32;3.80;;;;;;;11.37;46.38;101316.94;1758243;80;20893;-78
2022/05/09 01:27:59;;;;;;;6.55;4.65;;;;;;;11.34;46.45;101310.08;1758683;81;21226;-79
2022/05/09 01:30:52;;;;;;;8.05;3.77;;;;;;;11.31;46.53;101308.06;1758241;81;20884;-79
2022/05/09 01:33:30;;;;;;;8.05;3.67;;;;;;;11.28;46.93;101313.48;1724924;83;20951;-78
2022/05/09 01:36:04;;;;;;;9.08;3.92;;;;;;;11.22;46.98;101312.02;1724969;82;20986;-77
2022/05/09 01:38:37;;;;;;;;;;;;;;;11.13;47.27;101300.20;1727379;83;21500;-77
2022/05/09 01:41:04;;;;;;;7.47;3.98;;;;;;;11.12;47.58;101307.71;1711359;83;21511;-79
2022/05/09 01:43:37;;;;;;;9.83;5.55;;;;;;;11.07;47.47;101302.30;1711246;84;21556;-78
2022/05/09 01:46:08;;;;;;;8.88;4.85;;;;;;;11.05;47.36;101306.33;1722659;83;20889;-79
2022/05/09 01:51:19;;;;;;;12.53;4.58;;;;;;;11.02;47.39;101299.06;1722260;83;20971;-77
2022/05/09 01:53:52;;;;;;;9.48;3.83;;;;;;;11.01;47.40;101295.60;1722233;82;21171;-78
2022/05/09 01:56:25;;;;;;;11.20;4.00;;;;;;;11.01;47.26;101300.01;1722310;83;20984;-78
2022/05/09 01:58:51;;;;;;;9.50;4.42;;;;;;;11.02;47.28;101297.28;1721837;83;20953;-79
2022/05/09 02:01:19;;;;;;;9.53;4.75;;;;;;;11.02;47.25;101299.06;1722134;82;21011;-78
2022/05/09 02:03:47;;;;;;;11.05;4.87;;;;;;;11.02;47.30;101292.50;1722472;83;20947;-79
2022/05/09 02:06:17;;;;;;;7.95;4.70;;;;;;;11.00;47.37;101291.26;1722180;83;21145;-79
2022/05/09 02:08:44;;;;;;;12.93;5.25;;;;;;;10.98;47.40;101290.05;1721226;83;20877;-80
2022/05/09 02:11:12;;;;;;;10.80;4.58;;;;;;;10.97;47.37;101284.87;1709067;84;20905;-78
2022/05/09 02:13:38;;;;;;;10.72;5.15;;;;;;;10.95;47.47;101283.63;1709087;84;20941;-78
2022/05/09 02:16:05;;;;;;;21.52;6.40;;;;;;;10.93;47.65;101282.84;1709283;84;20904;-80
2022/05/09 02:18:32;;;;;;;20.20;11.75;;;;;;;10.92;47.63;101284.27;1709139;84;21871;-78
2022/05/09 02:20:59;;;;;;;17.23;7.45;;;;;;;10.90;47.59;101281.70;1708781;83;20937;-79
2022/05/09 02:23:25;;;;;;;15.80;6.47;;;;;;;10.91;47.52;101286.48;1708768;83;20901;-79
2022/05/09 02:25:53;;;;;;;13.25;6.08;;;;;;;10.91;47.65;101283.86;1709096;84;20886;-78
2022/05/09 02:28:22;;;;;;;20.00;5.72;;;;;;;10.91;48.02;101283.86;1708550;83;20901;-79
2022/05/09 02:30:49;;;;;;;17.87;6.60;;;;;;;10.90;48.78;101283.48;1708564;84;21223;-79
2022/05/09 02:33:15;;;;;;;22.07;6.90;;;;;;;10.89;48.52;101283.09;1708734;83;21411;-78
2022/05/09 02:35:43;;;;;;;16.10;6.05;;;;;;;10.89;48.52;101287.02;1708500;83;21334;-78
2022/05/09 02:38:10;;;;;;;15.18;6.72;;;;;;;10.87;49.16;101279.69;1708544;83;20917;-79
2022/05/09 02:40:37;;;;;;;15.05;5.97;;;;;;;10.86;49.53;101285.88;1680974;84;21482;-77
2022/05/09 02:43:04;;;;;;;15.48;6.80;;;;;;;10.82;50.11;101285.64;1708524;83;21231;-79
2022/05/09 02:45:30;;;;;;;14.25;5.97;;;;;;;10.80;50.20;101289.64;1708696;83;20865;-78
2022/05/09 02:47:58;;;;;;;12.93;6.37;;;;;;;10.77;50.93;101288.03;1708770;83;20996;-78
2022/05/09 02:50:25;;;;;;;13.80;6.05;;;;;;;10.75;50.67;101296.91;1708556;84;20948;-78
2022/05/09 02:52:52;;;;;;;11.90;5.80;;;;;;;10.72;50.60;101288.73;1708631;84;20908;-79
2022/05/09 02:55:20;;;;;;;13.50;5.75;;;;;;;10.73;49.66;101297.44;1708643;84;21338;-78
2022/05/09 02:57:46;;;;;;;17.95;5.30;;;;;;;10.74;49.18;101294.75;1708444;83;20897;-78
2022/05/09 03:00:20;;;;;;;12.85;6.00;;;;;;;10.76;48.99;101290.28;1708624;84;20913;-80
2022/05/09 03:05:16;;;;;;;12.03;5.95;;;;;;;10.83;48.72;101286.02;1677406;83;21047;-78
2022/05/09 03:07:43;;;;;;;15.00;5.70;;;;;;;10.87;48.56;101284.50;1708629;83;21114;-78
2022/05/09 03:10:10;;;;;;;15.25;6.75;;;;;;;10.91;48.47;101285.17;1711533;83;20908;-77
2022/05/09 03:12:36;;;;;;;14.63;5.28;;;;;;;10.94;48.51;101288.50;1714249;83;21659;-78
2022/05/09 03:15:04;;;;;;;9.78;5.58;;;;;;;10.99;48.41;101288.27;1714202;83;20905;-79
2022/05/09 03:17:31;;;;;;;21.73;6.00;;;;;;;11.04;48.41;101281.00;1714353;83;21000;-79
2022/05/09 03:19:57;;;;;;;14.53;5.65;;;;;;;11.14;48.26;101284.02;1715235;83;21913;-78
2022/05/09 03:22:29;;;;;;;14.55;5.42;;;;;;;11.22;48.09;101283.60;1716240;83;20865;-77
2022/05/09 03:24:55;;;;;;;14.80;6.85;;;;;;;11.29;47.89;101279.25;1714505;83;20928;-78
2022/05/09 03:27:22;;;;;;;15.00;6.30;;;;;;;11.36;47.88;101280.65;1714187;83;20968;-79
2022/05/09 03:29:48;;;;;;;19.23;6.15;;;;;;;11.44;47.69;101278.08;1714209;83;20925;-77
2022/05/09 03:32:14;;;;;;;11.28;5.53;;;;;;;11.51;47.67;101274.19;1714382;83;21224;-79
2022/05/09 03:34:42;;;;;;;15.45;6.05;;;;;;;11.58;47.75;101277.73;1714153;83;20865;-79
2022/05/09 03:37:09;;;;;;;14.05;5.75;;;;;;;11.66;47.63;101279.94;1714125;83;21489;-78
2022/05/09 03:39:35;;;;;;;17.15;7.10;;;;;;;11.72;47.53;101276.98;1714875;83;21366;-78
2022/05/09 03:42:02;;;;;;;16.27;6.20;;;;;;;11.78;47.54;101276.66;1714602;83;20904;-75
2022/05/09 03:44:29;;;;;;;13.40;6.53;;;;;;;11.85;47.48;101277.17;1714950;83;21903;-78
2022/05/09 03:46:55;;;;;;;12.75;6.08;;;;;;;11.93;47.49;101278.08;1714618;83;21411;-78
2022/05/09 03:49:21;;;;;;;15.72;6.22;;;;;;;12.00;47.44;101286.84;1714130;83;20960;-79
2022/05/09 03:51:48;;;;;;;13.93;6.85;;;;;;;12.07;47.69;101286.03;1714189;83;20976;-79
2022/05/09 03:54:16;;;;;;;14.73;5.53;;;;;;;12.15;47.41;101286.94;1661233;83;20904;-79
2022/05/09 03:56:43;;;;;;;13.68;6.05;;;;;;;12.23;47.43;101279.48;1714163;83;21122;-79
2022/05/09 03:59:09;;;;;;;15.40;5.35;;;;;;;12.31;47.17;101285.13;1714124;83;20936;-79
2022/05/09 04:01:36;;;;;;;13.55;6.08;;;;;;;12.40;47.14;101275.88;1714305;83;21421;-79
2022/05/09 04:04:02;;;;;;;16.50;6.28;;;;;;;12.51;47.03;101276.58;1714269;83;20961;-80
2022/05/09 04:06:29;;;;;;;15.20;6.12;;;;;;;12.64;46.93;101272.30;1714216;83;21526;-79
2022/05/09 04:08:58;;;;;;;17.42;6.20;;;;;;;12.78;46.72;101278.94;1714121;83;21131;-79
2022/05/09 04:11:26;;;;;;;17.62;6.97;;;;;;;12.95;46.50;101281.03;1708758;83;20901;-79
2022/05/09 04:13:53;;;;;;;16.00;6.17;;;;;;;13.18;46.38;101280.96;1708469;83;20892;-80
2022/05/09 04:19:04;;;;;;;;;;;;;;;13.89;46.82;101277.03;1711165;84;20869;-78
2022/05/09 04:21:31;;;;;;;20.43;7.85;;;;;;;14.51;47.27;101283.12;1708464;84;21929;-80
2022/05/09 04:23:58;;;;;;;14.10;7.95;;;;;;;15.73;43.41;101274.41;1708736;83;20905;-78
2022/05/09 04:26:26;;;;;;;15.20;7.50;;;;;;;15.73;43.41;101274.41;1708675;83;20893;-79
2022/05/09 04:28:53;;;;;;;24.35;9.88;;;;;;;16.30;42.86;101274.27;1708406;84;20924;-79
2022/05/09 04:31:22;;;;;;;17.32;8.18;;;;;;;16.88;42.19;101274.39;1708875;84;20861;-77
2022/05/09 04:33:50;;;;;;;22.73;8.78;;;;;;;17.42;40.75;101268.91;1708769;83;21803;-79
2022/05/09 04:36:17;;;;;;;21.07;10.55;;;;;;;17.90;39.92;101267.34;1709161;84;20995;-79
2022/05/09 04:38:45;;;;;;;19.85;9.33;;;;;;;18.33;39.41;101270.95;1708913;84;20917;-78
2022/05/09 04:41:13;;;;;;;20.80;10.82;;;;;;;18.74;39.55;101268.84;1708462;84;20909;-79
2022/05/09 04:43:40;;;;;;;25.48;10.88;;;;;;;19.07;38.46;101267.45;1708681;83;21004;-79
2022/05/09 04:46:07;;;;;;;19.67;9.98;;;;;;;19.33;37.79;101272.70;1708869;84;21108;-80
2022/05/09 04:48:34;;;;;;;20.65;10.43;;;;;;;19.59;36.59;101261.11;1708541;83;20898;-78
2022/05/09 04:51:01;;;;;;;22.15;9.45;;;;;;;19.89;36.00;101266.05;1708660;83;20956;-79
2022/05/09 04:53:27;;;;;;;26.25;10.55;;;;;;;20.24;35.34;101266.04;1708829;83;21023;-78
2022/05/09 04:55:57;;;;;;;19.60;11.15;;;;;;;20.68;34.88;101268.66;1703888;84;20862;-78
2022/05/09 04:58:24;;;;;;;20.60;9.55;;;;;;;21.16;33.86;101271.36;1708884;84;21248;-79
2022/05/09 05:00:51;;;;;;;22.42;10.08;;;;;;;21.65;33.11;101253.34;1708754;83;20933;-79
2022/05/09 05:03:19;;;;;;;20.97;10.15;;;;;;;22.11;32.01;101264.36;1708696;84;20965;-78
2022/05/09 05:05:48;;;;;;;19.62;9.80;;;;;;;22.52;31.63;101258.10;1708393;83;21020;-80
2022/05/09 05:08:15;;;;;;;19.60;10.03;;;;;;;22.96;30.41;101257.23;1708938;84;21375;-78
2022/05/09 05:10:41;;;;;;;96.15;16.62;;;;;;;23.40;30.11;101261.19;1711423;83;21169;-78
2022/05/09 05:13:08;;;;;;;21.90;9.68;;;;;;;23.80;29.66;101253.00;1717270;83;20949;-79
2022/05/09 05:15:35;;;;;;;20.23;9.58;;;;;;;24.14;28.98;101249.38;1721817;83;20888;-79
2022/05/09 05:18:03;;;;;;;26.42;8.50;;;;;;;24.50;28.62;101253.98;1721745;83;20888;-78
2022/05/09 05:20:30;;;;;;;20.72;12.07;;;;;;;24.84;28.11;101254.28;1721795;83;20958;-78
2022/05/09 05:22:56;;;;;;;24.52;11.97;;;;;;;25.17;27.57;101255.55;1722171;82;21122;-78
2022/05/09 05:25:26;;;;;;;28.80;12.63;;;;;;;25.46;27.13;101250.08;1721793;82;20951;-76
2022/05/09 05:27:53;;;;;;;25.70;11.63;;;;;;;25.72;26.63;101243.08;1721775;83;20895;-79
2022/05/09 05:30:21;;;;;;;25.65;12.23;;;;;;;25.95;26.33;101242.66;1721734;83;20908;-78
2022/05/09 05:32:48;;;;;;;22.22;11.68;;;;;;;26.19;25.85;101237.62;1721996;83;20959;-78
2022/05/09 05:35:19;;;;;;;28.23;10.85;;;;;;;26.44;25.79;101236.90;1721711;82;21180;-77
2022/05/09 05:37:46;;;;;;;28.73;11.18;;;;;;;26.66;25.61;101233.05;1721575;83;20919;-79
2022/05/09 05:40:13;;;;;;;26.90;10.90;;;;;;;26.88;25.23;101228.62;1721902;83;20904;-80
2022/05/09 05:42:43;;;;;;;21.85;9.85;;;;;;;27.08;24.64;101231.08;1721805;83;20956;-78
2022/05/09 05:45:11;;;;;;;26.50;9.63;;;;;;;27.21;24.42;101222.39;1721989;83;20919;-78
2022/05/09 05:47:38;;;;;;;21.52;9.63;;;;;;;27.30;23.91;101221.75;1721704;83;21227;-79
2022/05/09 05:50:05;;;;;;;49.42;12.07;;;;;;;27.31;24.03;101219.91;1721615;83;20864;-79
2022/05/09 05:52:32;;;;;;;25.90;9.03;;;;;;;27.36;24.12;101218.83;1722161;83;20971;-79
2022/05/09 05:54:58;;;;;;;21.02;8.58;;;;;;;27.52;24.04;101223.99;1721659;83;20966;-78
2022/05/09 05:57:31;;;;;;;24.72;10.53;;;;;;;27.77;24.18;101221.81;1721867;83;20892;-78
2022/05/09 06:00:02;;;;;;;21.15;10.28;;;;;;;27.99;23.90;101219.14;1722222;83;21129;-81
2022/05/09 06:02:29;;;;;;;25.10;11.53;;;;;;;28.19;23.72;101217.49;1721955;83;21407;-80
2022/05/09 06:04:55;;;;;;;23.65;10.18;;;;;;;28.40;23.31;101219.32;1722028;82;20935;-78
2022/05/09 06:07:22;;;;;;;24.77;10.18;;;;;;;28.61;23.26;101226.56;1722224;82;20928;-80
2022/05/09 06:09:50;;;;;;;23.85;10.50;;;;;;;28.78;23.04;101225.75;1722001;83;21456;-79
2022/05/09 06:12:21;;;;;;;24.75;11.33;;;;;;;28.87;22.79;101226.44;1716785;82;20971;-80
2022/05/09 06:15:34;;;;;;;19.45;11.68;;;;;;;28.94;22.62;101222.73;1716766;83;20975;-78
2022/05/09 06:17:17;;;;;;;27.25;11.18;;;;;;;29.02;22.49;101215.53;1705749;82;20952;-80
2022/05/09 06:19:44;;;;;;;23.12;12.98;;;;;;;29.12;22.80;101211.95;1716776;83;21406;-78
2022/05/09 06:22:11;;;;;;;27.98;12.75;;;;;;;29.29;22.98;101211.94;1716876;83;20948;-78
2022/05/09 06:24:38;;;;;;;31.23;12.43;;;;;;;29.51;23.06;101210.47;1716651;82;21515;-80
2022/05/09 06:27:05;;;;;;;20.27;12.03;;;;;;;29.64;22.23;101210.52;1716638;82;20928;-79
2022/05/09 06:29:32;;;;;;;32.10;12.60;;;;;;;29.82;22.32;101209.97;1716742;83;21441;-79
2022/05/09 06:31:59;;;;;;;20.23;10.23;;;;;;;30.05;22.31;101205.52;1716635;83;21023;-79
2022/05/09 06:34:26;;;;;;;25.17;9.18;;;;;;;30.26;21.79;101206.35;1716553;82;20935;-82
2022/05/09 06:36:52;;;;;;;21.00;8.85;;;;;;;30.36;21.78;101213.58;1716780;83;21767;-77
2022/05/09 06:39:19;;;;;;;14.15;6.83;;;;;;;30.42;21.29;101203.80;1716501;83;20928;-79
2022/05/09 06:41:47;;;;;;;12.53;5.40;;;;;;;30.48;21.28;101207.00;1716579;83;20895;-80
2022/05/09 06:44:14;;;;;;;11.93;5.83;;;;;;;30.46;21.11;101205.88;1716647;82;20939;-78
2022/05/09 06:46:41;;;;;;;7.65;4.17;;;;;;;30.48;21.68;101202.45;1716575;83;20995;-78
2022/05/09 06:49:07;;;;;;;10.50;3.72;;;;;;;30.56;20.97;101205.44;1717211;83;21235;-77
2022/05/09 06:51:34;;;;;;;7.67;4.58;;;;;;;30.49;21.02;101201.92;1716721;83;20880;-76
2022/05/09 06:54:02;;;;;;;10.70;4.05;;;;;;;30.49;21.78;101199.20;1716579;83;20916;-78
2022/05/09 06:56:28;;;;;;;4.55;2.75;;;;;;;30.64;21.52;101192.19;1716443;83;20990;-81
2022/05/09 06:58:55;;;;;;;4.47;2.20;;;;;;;30.76;21.59;101193.22;1716450;83;20892;-79
2022/05/09 07:01:22;;;;;;;6.03;3.20;;;;;;;30.88;21.37;101197.48;1716518;82;21257;-80
2022/05/09 07:03:48;;;;;;;4.30;2.55;;;;;;;30.94;21.39;101196.11;1716387;83;21010;-78
2022/05/09 07:06:16;;;;;;;4.92;2.70;;;;;;;31.08;21.21;101195.58;1716398;83;20931;-79
2022/05/09 07:08:43;;;;;;;6.05;2.92;;;;;;;31.20;20.78;101193.02;1716418;83;20908;-79
2022/05/09 07:11:11;;;;;;;12.65;3.27;;;;;;;31.28;20.82;101191.93;1713589;83;21448;-79
2022/05/09 07:13:38;;;;;;;4.33;3.00;;;;;;;31.41;21.28;101198.64;1708869;84;21164;-80
2022/05/09 07:16:05;;;;;;;5.75;3.17;;;;;;;31.50;20.48;101191.95;1708764;84;20889;-80
2022/05/09 07:18:32;;;;;;;9.28;3.47;;;;;;;31.53;20.57;101186.64;1708808;84;20944;-82
2022/05/09 07:20:59;;;;;;;11.90;3.77;;;;;;;31.60;20.77;101188.78;1708973;82;21082;-79
2022/05/09 07:23:25;;;;;;;6.40;2.87;;;;;;;31.70;20.57;101178.27;1708991;84;20928;-80
2022/05/09 07:25:52;;;;;;;4.65;3.80;;;;;;;31.86;20.64;101188.30;1708862;84;21116;-79
2022/05/09 07:28:21;;;;;;;10.18;3.10;;;;;;;32.01;20.45;101181.52;1708908;84;20952;-80
2022/05/09 07:30:49;;;;;;;12.82;3.83;;;;;;;32.17;20.12;101182.89;1708792;84;21425;-80
2022/05/09 07:33:17;;;;;;;7.33;2.72;;;;;;;32.29;20.77;101178.09;1708690;82;20928;-81
2022/05/09 07:35:44;;;;;;;5.95;2.65;;;;;;;32.38;20.72;101180.28;1709063;83;20928;-80
2022/05/09 07:38:11;;;;;;;7.53;3.40;;;;;;;32.48;20.77;101172.16;1709260;84;21149;-79
2022/05/09 07:40:40;;;;;;;8.05;3.40;;;;;;;32.63;20.41;101176.20;1709076;82;20967;-78
2022/05/09 07:43:14;;;;;;;10.20;2.90;;;;;;;32.77;20.08;101172.83;1709232;84;21462;-78
2022/05/09 07:45:42;;;;;;;5.25;2.25;;;;;;;32.96;20.05;101180.44;1709092;84;20979;-77
2022/05/09 07:48:09;;;;;;;5.22;2.40;;;;;;;33.04;20.34;101176.59;1708782;84;20920;-77
2022/05/09 07:50:36;;;;;;;6.22;2.33;;;;;;;33.07;20.13;101179.42;1708963;84;21197;-77
2022/05/09 07:53:12;;;;;;;7.85;2.40;;;;;;;33.00;20.19;101173.49;1708676;84;20892;-78
2022/05/09 07:55:40;;;;;;;8.05;2.70;;;;;;;32.98;20.03;101172.06;1708847;84;20897;-79
2022/05/09 07:58:07;;;;;;;4.08;3.50;;;;;;;32.93;20.19;101175.47;1709070;83;20912;-78
2022/05/09 08:00:36;;;;;;;5.70;3.65;;;;;;;32.91;20.00;101183.55;1708691;84;20896;-78
2022/05/09 08:03:05;;;;;;;8.33;3.45;;;;;;;32.90;20.57;101176.44;1709091;82;21766;-78
2022/05/09 08:05:34;;;;;;;5.37;2.45;;;;;;;32.99;20.73;101171.00;1708649;82;20866;-78
2022/05/09 08:08:01;;;;;;;6.60;1.77;;;;;;;33.14;20.54;101176.08;1708664;84;20956;-78
2022/05/09 08:10:29;;;;;;;4.50;2.47;;;;;;;33.19;20.21;101168.88;1708636;84;21470;-77
2022/05/09 08:12:58;;;;;;;7.35;3.27;;;;;;;33.18;20.41;101171.31;1708865;82;20873;-78
2022/05/09 08:15:25;;;;;;;8.03;2.67;;;;;;;33.26;20.46;101166.61;1708797;84;21158;-78
2022/05/09 08:17:52;;;;;;;5.10;2.72;;;;;;;33.28;20.17;101164.50;1744811;82;20932;-78
2022/05/09 08:20:20;;;;;;;4.70;2.50;;;;;;;33.27;20.22;101158.23;1744442;82;20941;-78
2022/05/09 08:22:46;;;;;;;6.92;2.98;;;;;;;33.27;20.19;101166.93;1744442;82;20897;-79
2022/05/09 08:25:14;;;;;;;7.05;2.80;;;;;;;33.44;20.63;101170.67;1744876;80;20897;-78
2022/05/09 08:27:41;;;;;;;4.17;2.92;;;;;;;33.69;20.31;101165.64;1744513;81;21226;-79
2022/05/09 08:30:09;;;;;;;9.13;2.70;;;;;;;33.75;19.72;101164.17;1744744;80;20845;-80
2022/05/09 08:32:38;;;;;;;7.85;2.80;;;;;;;33.71;19.71;101167.59;1744491;82;20885;-80
2022/05/09 08:35:08;;;;;;;6.65;3.05;;;;;;;33.78;20.26;101161.52;1744627;80;20956;-79
2022/05/09 08:37:35;;;;;;;5.30;2.80;;;;;;;33.81;20.12;101161.86;1744540;82;20881;-77
2022/05/09 08:40:03;;;;;;;16.95;3.17;;;;;;;33.88;19.83;101161.75;1744708;82;21121;-80
2022/05/09 08:42:45;;;;;;;13.03;4.08;;;;;;;33.52;20.43;101160.80;1744505;82;20983;-79
2022/05/09 08:45:31;;;;;;;4.53;2.50;;;;;;;33.04;20.33;101162.47;1707981;84;20924;-79
2022/05/09 08:48:26;;;;;;;11.75;3.10;;;;;;;32.68;20.69;101152.43;1708713;82;21054;-78
2022/05/09 08:51:13;;;;;;;5.62;3.47;;;;;;;32.47;21.37;101160.47;1708900;82;21390;-78
2022/05/09 08:53:43;;;;;;;8.80;2.92;;;;;;;32.33;21.45;101161.12;1708648;84;21264;-78
2022/05/09 08:56:16;;;;;;;5.20;2.92;;;;;;;32.35;21.67;101159.02;1708568;82;20936;-77
2022/05/09 08:58:55;;;;;;;14.33;3.20;;;;;;;32.33;21.57;101166.56;1708774;84;20916;-79
2022/05/09 09:01:38;;;;;;;14.68;4.25;;;;;;;32.25;21.96;101174.98;1708593;82;20968;-79
2022/05/09 09:04:07;;;;;;;8.90;3.15;;;;;;;31.83;21.72;101166.52;1708728;84;20944;-82
2022/05/09 09:07:12;;;;;;;12.80;3.80;;;;;;;31.59;22.22;101181.69;1733979;82;21933;-80
2022/05/09 09:10:14;;;;;;;4.22;3.10;;;;;;;31.53;22.77;101181.22;1744494;80;20940;-79
2022/05/09 09:13:07;;;;;;;8.08;3.67;;;;;;;31.26;22.62;101186.75;1708731;82;20944;-78
2022/05/09 09:16:19;;;;;;;10.88;3.85;;;;;;;30.88;22.83;101190.72;1708888;84;20920;-78
2022/05/09 09:19:31;;;;;;;10.05;3.27;;;;;;;30.30;23.43;101188.16;1708811;84;21347;-78
2022/05/09 09:22:23;;;;;;;10.15;3.45;;;;;;;29.93;24.39;101194.48;1667886;84;21244;-78
2022/05/09 09:25:28;;;;;;;9.05;2.95;;;;;;;29.92;24.91;101183.86;1744587;82;20882;-78
2022/05/09 09:28:06;;;;;;;9.08;3.08;;;;;;;30.11;24.74;101188.46;1720259;81;21486;-78
2022/05/09 09:30:33;;;;;;;5.90;3.12;;;;;;;30.40;24.62;101182.87;1710341;82;21409;-78
2022/05/09 09:33:05;;;;;;;4.55;3.00;;;;;;;30.61;24.24;101177.20;1709009;82;21018;-79
2022/05/09 09:35:58;;;;;;;9.35;2.77;;;;;;;30.87;23.71;101177.70;1709334;84;21782;-77
2022/05/09 09:38:55;;;;;;;7.05;3.10;;;;;;;31.05;23.51;101171.59;1708990;84;20920;-78
2022/05/09 09:41:34;;;;;;;8.90;3.58;;;;;;;31.26;23.34;101166.42;1708700;83;21536;-79
2022/05/09 09:44:20;;;;;;;6.45;3.10;;;;;;;31.42;23.24;101158.34;1708925;82;21394;-78
2022/05/09 09:47:08;;;;;;;7.97;3.27;;;;;;;31.33;22.96;101158.25;1708866;82;20920;-79
2022/05/09 09:49:44;;;;;;;5.70;3.58;;;;;;;30.74;23.60;101164.99;1708980;84;21241;-77
2022/05/09 09:52:22;;;;;;;8.63;3.35;;;;;;;30.14;24.60;101173.16;1708780;84;20936;-79
2022/05/09 09:55:03;;;;;;;4.75;2.60;;;;;;;29.51;25.38;101170.76;1709344;84;20905;-77
2022/05/09 09:57:36;;;;;;;6.90;2.47;;;;;;;28.90;26.16;101186.88;1708976;84;21457;-79
2022/05/09 10:00:30;;;;;;;6.95;2.72;;;;;;;28.58;27.43;101187.83;1708816;82;21458;-79
2022/05/09 10:03:20;;;;;;;13.00;8.15;;;;;;;28.44;27.95;101185.53;1708858;84;21253;-78
2022/05/09 10:05:48;;;;;;;11.93;2.40;;;;;;;28.50;28.66;101190.17;1708531;82;20896;-79
2022/05/09 10:08:37;;;;;;;8.13;2.25;;;;;;;28.59;28.55;101190.87;1708806;82;21423;-81
2022/05/09 10:11:12;;;;;;;4.37;1.95;;;;;;;28.72;28.68;101204.45;1708869;84;20896;-78
2022/05/09 10:13:47;;;;;;;11.55;2.62;;;;;;;28.82;27.92;101209.48;1744575;81;20972;-79
2022/05/09 10:16:38;;;;;;;7.20;1.95;;;;;;;28.91;27.56;101213.69;1744290;81;21244;-78
2022/05/09 10:19:10;;;;;;;4.08;1.75;;;;;;;28.96;27.80;101202.81;1744545;82;20913;-79
2022/05/09 10:24:49;;;;;;;9.00;2.00;;;;;;;29.09;27.41;101213.72;1744576;82;20988;-79
2022/05/09 10:27:27;;;;;;;6.78;1.95;;;;;;;29.08;27.82;101212.00;1758098;81;21374;-78
2022/05/09 10:30:14;;;;;;;4.80;1.45;;;;;;;29.00;27.57;101213.02;1744643;80;21222;-79
2022/05/09 10:32:53;;;;;;;7.22;1.82;;;;;;;28.75;27.86;101225.30;1744468;81;20976;-79
2022/05/09 10:35:27;;;;;;;3.22;1.80;;;;;;;28.61;27.88;101232.48;1744548;81;21003;-80
2022/05/09 10:38:01;;;;;;;7.35;1.98;;;;;;;28.42;28.23;101228.58;1744513;81;21470;-79
2022/05/09 10:40:39;;;;;;;3.75;2.22;;;;;;;28.18;28.70;101214.45;1744763;82;20967;-79
2022/05/09 10:43:09;;;;;;;8.85;2.70;;;;;;;27.86;29.39;101232.00;1744548;80;21924;-78
2022/05/09 10:45:48;;;;;;;7.00;2.08;;;;;;;27.89;29.58;101232.43;1744611;82;21403;-78
2022/05/09 10:48:24;;;;;;;4.12;1.92;;;;;;;27.85;29.88;101228.44;1744608;82;20916;-81
2022/05/09 10:51:32;;;;;;;5.90;2.55;;;;;;;27.88;30.64;101236.17;1708823;83;20999;-79
2022/05/09 10:54:10;;;;;;;8.00;2.20;;;;;;;28.01;30.40;101234.62;1708886;84;21015;-78
2022/05/09 10:57:07;;;;;;;4.42;2.02;;;;;;;27.80;31.30;101243.50;1708857;84;21894;-80
2022/05/09 10:59:37;;;;;;;5.37;2.27;;;;;;;27.43;31.44;101239.95;1708790;84;21000;-81
2022/05/09 11:02:09;;;;;;;3.25;2.22;;;;;;;26.69;32.52;101242.60;1708806;84;20924;-77
2022/05/09 11:04:36;;;;;;;5.03;2.17;;;;;;;26.15;34.04;101241.67;1708855;82;20951;-77
2022/05/09 11:07:23;;;;;;;4.17;2.00;;;;;;;25.63;35.45;101243.15;1708739;84;20900;-78
2022/05/09 11:10:07;;;;;;;9.15;3.00;;;;;;;25.22;36.43;101250.02;1708871;82;21315;-78
2022/05/09 11:12:51;;;;;;;5.87;2.75;;;;;;;24.78;37.00;101252.27;1711657;83;20845;-78
2022/05/09 11:15:29;;;;;;;3.95;2.92;;;;;;;24.33;37.90;101250.92;1752603;81;20932;-79
2022/05/09 11:18:19;;;;;;;5.75;2.50;;;;;;;23.96;38.67;101244.16;1716504;82;21499;-78
2022/05/09 11:21:19;;;;;;;3.37;2.22;;;;;;;23.70;39.46;101249.10;1716443;82;21366;-77
2022/05/09 11:24:20;;;;;;;3.30;2.85;;;;;;;23.41;40.35;101253.52;1716373;83;21968;-79
2022/05/09 11:27:24;;;;;;;3.95;2.05;;;;;;;23.16;41.04;101248.52;1716332;82;21014;-79
2022/05/09 11:30:20;;;;;;;3.60;2.27;;;;;;;22.93;41.04;101243.68;1752854;80;20928;-79
2022/05/09 11:32:47;;;;;;;1.70;1.60;;;;;;;22.76;41.24;101242.72;1752543;80;20888;-79
2022/05/09 11:35:29;;;;;;;3.65;3.35;;;;;;;22.77;41.24;101239.57;1716437;83;20849;-78
2022/05/09 11:38:26;;;;;;;3.30;1.75;;;;;;;22.82;41.28;101235.09;1716501;82;21138;-80
2022/05/09 11:41:18;;;;;;;1.60;1.50;;;;;;;22.96;40.93;101227.30;1716465;83;21022;-78
2022/05/09 11:44:11;;;;;;;1.95;1.35;;;;;;;23.12;40.14;101230.63;1716161;83;20990;-79
2022/05/09 11:47:11;;;;;;;1.57;1.37;;;;;;;23.24;39.86;101224.99;1716690;83;20975;-79
2022/05/09 11:50:03;;;;;;;2.20;1.60;;;;;;;23.25;39.67;101214.11;1716609;83;20868;-79
2022/05/09 11:52:44;;;;;;;7.35;2.80;;;;;;;23.22;39.10;101221.13;1716532;82;21259;-79
2022/05/09 11:55:23;;;;;;;2.95;1.70;;;;;;;23.14;39.28;101221.94;1717926;83;20982;-81
2022/05/09 11:57:58;;;;;;;3.10;1.40;;;;;;;23.15;39.63;101220.93;1717826;83;20904;-77
2022/05/09 12:00:38;;;;;;;;;;;;;;;23.20;39.46;101229.81;1719133;83;20878;-78